Go Pro

Vanguard Small-Cap ETF (VB) Institutional Ownership

Vanguard Small-Cap ETF logo
$300.01 +0.16 (+0.05%)
As of 04:10 PM Eastern

Institutional Ownership Changes (13F Filings) for Vanguard Small-Cap ETF (NYSEARCA:VB)

Number of
Institutional Buyers
(last 12 months)
1499
Total
Institutional Inflows
(last 12 months)
$26.70B
Number of
Institutional Sellers
(last 12 months)
1063
Total
Institutional Outflows
(last 12 months)
$4.17B
Get VB Insider Trade Alerts

Want to know when executives and insiders are buying or selling Vanguard Small-Cap ETF stock? Sign up for InsiderTrades.com's daily newsletter to get the latest insider transactions delivered to your inbox daily.

SMS is currently available in Australia, Belgium, Canada, France, Germany, Ireland, Italy, New Zealand, the Netherlands, Singapore, South Africa, Spain, Switzerland, the United Kingdom, and the United States. By entering your phone number and clicking the sign-up button, you agree to receive periodic text messages from MarketBeat at the phone number you submitted, including texts that may be sent using an automatic telephone dialing system. Message and data rates may apply. Message frequency will vary. Messages will consist of stock alerts, news stories, and partner advertisements/offers. Consent is not a condition of the purchase of any goods or services. Text HELP for help/customer support. Unsubscribe at any time by replying "STOP" to any text message that you receive from MarketBeat or by visiting our mailing preferences page. Read our full terms of service and privacy policy.
Skip Chart & View Institutional Buying and Selling Data

VB Institutional Buying and Selling by Quarter

Vanguard Small-Cap ETF Major Shareholders & Ownership History

Reporting DateMajor Shareholder NameShares HeldMarket Value% of PortfolioQuarterly Change in SharesOwnership in CompanyDetails
9/4/2026Parkside Financial Bank & Trust20,011$6.07M0.4%+2.3%0.007%
9/2/2026 Kinetic Wealth Investment Advisors LLC864$262K0.1%N/A0.000%
9/2/2026 Range Advisory LLC5,472$1.66M0.2%+39.2%0.002%
9/2/2026 Capital & Planning LLC38,814$11.77M6.1%-7.0%0.014%
8/27/2026 Corient Private Wealth LP407,068$123.39M0.2%-25.7%0.151%
8/26/2026 HORAN Wealth LLC1,834$556K0.1%-49.4%0.001%
8/26/2026 HighTower Advisors LLC959,311$290.79M0.3%+0.0%0.356%
8/25/2026 Financial Insights Inc.20,176$6.12M1.7%-4.4%0.007%
8/23/2026 Tanager Wealth Management LLP10,555$3.20M0.3%-2.2%0.004%
8/23/2026 Studio Investment Management LLC1,533$465K0.1%N/A0.001%
8/23/2026 Mason & Associates LLC46,209$14.01M2.9%+0.7%0.017%
8/23/2026 Ameritas Advisory Services LLC86,317$26.16M0.5%+65.5%0.032%
8/23/2026 Guardian Wealth Advisors LLC NC9,672$2.93M0.2%+4.0%0.004%
8/23/2026 Henrickson Nauta Wealth Advisors Inc.1,376$417K0.1%N/A0.001%
8/23/2026 Wedmont Private Capital60,211$17.95M0.5%+0.3%0.022%
8/23/2026 Kintra Wealth LLC9,021$2.78M0.1%+123.0%0.003%
8/23/2026 Endeavor Private Wealth Inc.12,814$3.88M0.9%-10.3%0.005%
8/23/2026 Sovereign Investment Advisors LLC742$225K0.0%N/A0.000%
8/23/2026 Operose Advisors LLC9,480$2.87M0.6%+1.3%0.004%
8/23/2026 HB Wealth Management LLC105,892$32.10M0.2%+16.2%0.039%
8/23/2026 Gibson Wealth Advisors LLC11,205$3.40M2.1%-2.8%0.004%
8/23/2026 Global Wealth Strategies & Associates1,541$467K0.1%-7.3%0.001%
8/23/2026 Nilsine Partners LLC3,054$926K0.1%+1.2%0.001%
8/23/2026 Nvest Financial LLC9,983$3.03M1.0%+12.0%0.004%
8/23/2026 Hutchens & Kramer Investment Management Group LLC2,061$625K0.2%-7.4%0.001%
8/23/2026 Fortitude Advisory Group L.L.C.2,323$704K0.3%+14.2%0.001%
8/23/2026 Angeles Wealth Management LLC2,448$742K0.0%+6.3%0.001%
8/23/2026 Riverview Capital Advisers LLC1,590$482K0.1%-3.8%0.001%
8/22/2026 Rose Capital Advisors LLC24,429$7.41M3.7%N/A0.009%
8/22/2026 Compass Financial Management LLC332$101K0.0%N/A0.000%
8/22/2026 NI Acquisitions Company LLC44,993$13.64M5.1%N/A0.017%
8/22/2026 NBH Bank7,984$2.42M1.0%N/A0.003%
8/22/2026 Gainline Financial Partners LLC8,926$2.71M2.5%N/A0.003%
8/22/2026 Arbor Wealth Management LLC AZ21,786$6.60M5.9%N/A0.008%
8/22/2026 Old Mission Investment Co LLC66,050$20.02M4.2%N/A0.025%
8/22/2026 Highland Investment Advisors LLC1,871$567K0.2%N/A0.001%
8/22/2026 Timbuktu Capital Management LLC5,842$1.77M2.7%N/A0.002%
8/22/2026 Strive Financial Group LLC726$220K0.1%+97.8%0.000%
8/22/2026 Cassilly Financial Group LLC14,401$4.37M3.2%+4.5%0.005%
8/22/2026 Hopwood Nicholas Hunter16,229$4.92M1.4%N/A0.006%
They laughed at the baby-faced broker (*but shouldn’t have!) (Ad)

A young broker named Irving Weiss predicted the 1929 crash while veteran traders laughed. Two days later, the Dow fell nearly 13 percent, then another 12 percent, wiping out roughly 90 percent of stock values. His son, Dr. Martin Weiss, has used that same system to call major market events for 55 years, from Black Monday in 1987 to the 2008 crisis and the 2020 Covid crash, and to flag early opportunities like Apple, Netflix and Nvidia.tc pixel

Claim your Labor Day discount on Weiss Ratings Plus today
8/22/2026 Elevation Wealth Management LLC1,356$411K0.3%-3.6%0.001%
8/22/2026 Plan A Wealth LLC722$219K0.1%N/A0.000%
8/22/2026 Cooke Wealth Management LLC17,952$5.44M4.5%-3.1%0.007%
8/22/2026 Cornerstone Advisors Asset Management LLC7,880$2.39M0.3%-6.7%0.003%
8/22/2026 Jim Saulnier & Associates LLC6,136$1.86M0.9%+193.6%0.002%
8/22/2026 Rareview Capital LLC32,970$9.99M5.0%+6.3%0.012%
8/22/2026 Nabity Jensen Investment Management Inc5,120$1.55M1.0%-1.2%0.002%
8/22/2026 Investor s Fiduciary Advisor Network LLC1,945$589K0.2%-35.4%0.001%
8/22/2026 Lord & Richards Wealth Management LLC8,098$2.46M1.9%+4.1%0.003%
8/22/2026 LifePlan Investment Advisors Inc.7,611$2.31M0.8%+4.1%0.003%
8/22/2026 NWF Advisory Services Inc.2,383$722K0.1%-2.8%0.001%
8/22/2026 DORVAL Corp46,172$14.00M4.1%+1.6%0.017%
8/22/2026 Syon Capital LLC3,833$1.16M0.1%N/A0.001%
8/22/2026 TD Waterhouse Canada Inc.764$230K0.0%+15.9%0.000%
8/22/2026 Concurrent Investment Advisors LLC75,758$22.96M0.2%+20.0%0.028%
8/22/2026 Allen Mooney & Barnes Investment Advisors LLC16,912$5.13M0.8%-4.2%0.006%
8/21/2026 High Net Worth Advisory Group LLC5,991$1.82M0.4%-3.1%0.002%
8/21/2026 Carter Financial Group INC.1,120$340K0.2%-3.3%0.000%
8/21/2026 Leo H. Evart Inc.9,876$2.99M2.4%+4.0%0.004%
8/21/2026 Athena Investment Management3,054$926K0.5%-14.7%0.001%
8/21/2026 Strengthening Families & Communities LLC1,596$484K0.1%+4.6%0.001%
8/21/2026 Beacon Capital Management LLC1,439$436K0.1%-4.6%0.001%
8/21/2026 Greenspring Advisors LLC2,241$679K0.0%+48.0%0.001%
8/21/2026 Waycross Investment Management Co14,949$4.53M2.6%N/A0.006%
8/21/2026 Mayport LLC18,285$5.54M0.9%+10.6%0.007%
8/21/2026 Continuum Advisory LLC26,197$7.94M0.6%+0.5%0.010%
8/21/2026 Alamar Capital Management LLC692$210K0.1%N/A0.000%
8/21/2026 Coppell Advisory Solutions LLC2,241$679K0.1%N/A0.001%
8/21/2026 Firestone Capital Management1,515$459K0.1%+10.3%0.001%
8/21/2026 Sunburst Financial Group LLC4,972$1.51M0.2%-0.8%0.002%
8/21/2026 SkyOak Wealth LLC11,233$3.41M0.6%+0.5%0.004%
8/21/2026 XML Financial LLC21,795$6.61M0.5%+5.0%0.008%
8/21/2026 Tsfg LLC708$215K0.0%+6.9%0.000%
8/21/2026 KFA Private Wealth Group LLC15,811$4.79M1.3%-14.0%0.006%
8/21/2026 Sound Financial Strategies Group LLC4,710$1.43M0.9%+1.2%0.002%
8/21/2026 Symphony Financial Ltd. Co.1,908$578K0.1%N/A0.001%
8/21/2026 Secure Asset Management LLC6,315$1.91M0.3%+3.9%0.002%
8/21/2026 Bedel Financial Consulting Inc.4,557$1.38M0.1%+6.9%0.002%
8/21/2026 Acorn Wealth Advisors LLC15,290$4.64M1.1%+0.6%0.006%
8/21/2026 Triumph Capital Management2,408$730K0.1%-3.6%0.001%
8/21/2026 Rinkey Investments33,327$10.10M2.3%+5.0%0.012%
8/20/2026 First PREMIER Bank28,818$8.74M1.3%+2.9%0.011%
8/20/2026 Nwam LLC28,847$8.74M0.4%+10.1%0.011%
8/20/2026 Gill Capital Partners LLC29,589$8.97M2.4%+0.7%0.011%
8/20/2026 Rehmann Capital Advisory Group30,310$9.19M0.4%-0.7%0.011%
8/20/2026 CMH Wealth Management LLC675$205K0.0%N/A0.000%
8/20/2026 Orgel Wealth Management LLC33,887$10.27M0.2%+0.3%0.013%
8/20/2026 JNBA Financial Advisors24,310$7.37M0.4%-17.9%0.009%
8/20/2026 BTG Pactual Asset Management US LLC22,833$6.92M0.4%-14.4%0.008%
8/20/2026 Oarsman Capital Inc.1,636$496K0.0%-4.1%0.001%
The ultimate IPO unicorn before Labor Day (Ad)

Anthropic is now valued at over $1 trillion, more than every U.S. airline combined and larger than the U.S. defense budget. Its annualized revenue grew 80x in the first quarter, and an IPO could arrive as early as October. For a limited time, investors can access a report detailing how to explore a pre-IPO stake in Anthropic for $29, a 94% discount off the retail price. The package includes a year of Disruptors and Dominators, monthly stock ideas, and four special reports.tc pixel

Claim the discounted Anthropic pre-IPO report before Monday night's deadline.
8/20/2026 Camelot Portfolios LLC4,903$1.49M1.0%-1.8%0.002%
8/20/2026 Ancora Advisors LLC30,370$9.21M0.2%-0.5%0.011%
8/20/2026 Sigma Planning Corp40,643$12.32M0.3%+18.7%0.015%
8/20/2026 Two Sigma Securities LLC3,550$1.08M0.1%N/A0.001%
8/20/2026 B & T Capital Management DBA Alpha Capital Management1,634$495K0.1%+4.5%0.001%
8/20/2026 Benjamin Edwards Inc.45,016$13.66M0.1%-10.0%0.017%
8/20/2026 GTS Securities LLC5,358$1.62M0.0%N/A0.002%
8/20/2026 Flputnam Investment Management Co.6,748$2.05M0.0%-4.6%0.003%
8/20/2026 Davidson Investment Advisors20,105$6.09M0.2%-3.8%0.007%
8/20/2026 Northwestern Mutual Wealth Management Co.2,813,902$852.95M0.5%+0.0%1.045%


VB Institutional Ownership - Frequently Asked Questions

During the previous two years, 2,578 institutional investors and hedge funds held shares of Vanguard Small-Cap ETF. The most heavily invested institutionals were Auto Owners Insurance Co ($18.74B), Bank of America Corp DE ($5.67B), Morgan Stanley ($2.03B), Wells Fargo & Company MN ($1.56B), Envestnet Asset Management Inc. ($1.10B), UBS Group AG ($1.01B), and LPL Financial LLC ($1.01B).Learn more on Vanguard Small-Cap ETF's institutional investors.

Of the 2,254 institutional investors that purchased Vanguard Small-Cap ETF's stock in the last 24 months, the following investors and hedge funds have bought the highest volume of shares: Auto Owners Insurance Co ($73.28M), Corient Private Wealth LLC ($11.58M), Royal Bank of Canada ($3.36M), Align Financial LLC ($2.78M), Life Planning Partners Inc ($2.60M), Raymond James Financial Inc. ($2.36M), and Wit LLC ($2.25M).

Institutional investors have bought a total of 103,384,997 shares in the last 24 months. This purchase volume represents approximately $26.70B in transactions.

Of the 1,062 institutional investors that sold Vanguard Small-Cap ETF's stock in the last 24 months, the following investors and hedge funds have sold the highest volume of shares: Jones Financial Companies Lllp ($4.33M), Northwestern Mutual Wealth Management Co. ($2.34M), Bank of America Corp DE ($1.82M), Envestnet Asset Management Inc. ($867.25K), Focus Partners Wealth ($865.17K), Wellington Management Group LLP ($536.90K), and Wealthspire Advisors LLC ($395.13K).

Institutional investors have sold a total of 16,121,210 shares in the last 24 months. This volume of shares sold represents approximately $4.17B in transactions.



Institutional ownership data for NYSEARCA:VB is compiled from quarterly 13F filings submitted to the U.S. Securities and Exchange Commission (SEC), with the most recent received on 9/4/2026. New 13F filings are added each quarter as they're published.
From Our Partners